createdAt,value
2019-04-27T00:00:43.871Z,28.20
2019-04-27T00:03:18.307Z,28.10
2019-04-27T00:05:51.442Z,28.20
2019-04-27T00:08:28.511Z,28.20
2019-04-27T00:11:06.927Z,28.20
2019-04-27T00:13:40.464Z,28.20
2019-04-27T00:16:10.006Z,28.30
2019-04-27T00:18:43.352Z,28.30
2019-04-27T00:21:17.868Z,28.30
2019-04-27T00:23:50.293Z,28.30
2019-04-27T00:26:23.322Z,28.40
2019-04-27T00:28:55.766Z,28.40
2019-04-27T00:31:27.978Z,28.40
2019-04-27T00:33:59.780Z,28.40
2019-04-27T00:36:35.246Z,28.50
2019-04-27T00:39:10.030Z,28.50
2019-04-27T00:41:43.004Z,28.50
2019-04-27T00:44:15.772Z,28.50
2019-04-27T00:46:48.212Z,28.60
2019-04-27T00:49:20.485Z,28.60
2019-04-27T00:51:53.600Z,28.60
2019-04-27T00:54:26.874Z,28.70
2019-04-27T00:57:00.231Z,28.70
2019-04-27T00:59:34.701Z,28.70
2019-04-27T01:02:08.141Z,28.80
2019-04-27T01:04:40.488Z,28.80
2019-04-27T01:07:14.308Z,28.90
2019-04-27T01:09:47.371Z,29.00
2019-04-27T01:12:19.968Z,29.10
2019-04-27T01:14:53.482Z,29.10
2019-04-27T01:17:25.485Z,29.30
2019-04-27T01:20:00.335Z,29.40
2019-04-27T01:22:32.519Z,29.50
2019-04-27T01:25:05.505Z,29.60
2019-04-27T01:27:39.389Z,29.70
2019-04-27T01:30:13.081Z,29.80
2019-04-27T01:32:46.514Z,29.80
2019-04-27T01:35:18.739Z,29.90
2019-04-27T01:37:51.074Z,29.90
2019-04-27T01:40:23.601Z,30.00
2019-04-27T01:42:55.399Z,30.00
2019-04-27T01:45:28.985Z,30.10
2019-04-27T01:48:02.270Z,30.20
2019-04-27T01:50:34.372Z,30.30
2019-04-27T01:53:06.589Z,30.30
2019-04-27T01:55:49.139Z,30.40
2019-04-27T01:58:21.485Z,30.50
2019-04-27T02:01:15.914Z,30.50
2019-04-27T02:03:50.539Z,30.60
2019-04-27T02:06:23.403Z,30.70
2019-04-27T02:08:55.406Z,30.80
2019-04-27T02:11:28.840Z,30.80
2019-04-27T02:14:01.116Z,30.90
2019-04-27T02:16:33.414Z,30.90
2019-04-27T02:19:05.720Z,30.90
2019-04-27T02:21:39.259Z,31.00
2019-04-27T02:24:11.429Z,31.00
2019-04-27T02:26:45.848Z,31.10
2019-04-27T02:29:19.476Z,31.10
2019-04-27T02:31:53.096Z,31.20
2019-04-27T02:34:26.142Z,31.20
2019-04-27T02:37:02.548Z,31.30
2019-04-27T02:39:33.312Z,31.40
2019-04-27T02:42:10.828Z,31.50
2019-04-27T02:44:43.253Z,31.50
2019-04-27T02:47:16.803Z,31.60
2019-04-27T02:49:50.728Z,31.70
2019-04-27T02:52:26.750Z,31.80
2019-04-27T02:54:59.425Z,31.80
2019-04-27T02:57:31.310Z,31.80
2019-04-27T03:00:03.635Z,31.90
2019-04-27T03:02:40.235Z,31.90
2019-04-27T03:05:13.371Z,31.90
2019-04-27T03:08:06.082Z,31.90
2019-04-27T03:10:40.153Z,31.90
2019-04-27T03:13:14.022Z,31.90
2019-04-27T03:15:49.660Z,31.90
2019-04-27T03:18:22.964Z,31.90
2019-04-27T03:20:56.762Z,32.00
2019-04-27T03:23:31.023Z,32.00
2019-04-27T03:26:23.010Z,32.00
2019-04-27T03:28:55.693Z,32.10
2019-04-27T03:31:32.343Z,32.10
2019-04-27T03:34:05.104Z,32.10
2019-04-27T03:36:35.735Z,32.20
2019-04-27T03:39:10.358Z,32.20
2019-04-27T03:41:43.449Z,32.20
2019-04-27T03:44:20.497Z,32.20
2019-04-27T03:46:52.786Z,32.30
2019-04-27T03:49:34.559Z,32.40
2019-04-27T03:52:19.923Z,32.40
2019-04-27T03:54:53.464Z,32.50
2019-04-27T03:57:29.765Z,32.60
2019-04-27T04:00:03.822Z,32.70
2019-04-27T04:02:40.071Z,32.80
2019-04-27T04:05:12.300Z,32.90
2019-04-27T04:07:44.674Z,32.90
2019-04-27T04:10:19.890Z,32.90
2019-04-27T04:12:56.733Z,33.00
2019-04-27T04:15:31.075Z,33.00
2019-04-27T04:18:03.482Z,33.10
2019-04-27T04:20:35.718Z,33.20
2019-04-27T04:23:07.518Z,33.40
2019-04-27T04:25:40.968Z,33.50
2019-04-27T04:28:12.968Z,33.60
2019-04-27T04:30:45.644Z,33.70
2019-04-27T04:33:20.192Z,33.80
2019-04-27T04:35:52.517Z,33.90
2019-04-27T04:38:25.216Z,34.00
2019-04-27T04:40:59.400Z,34.10
2019-04-27T04:43:32.959Z,34.10
2019-04-27T04:46:11.551Z,34.10
2019-04-27T04:48:41.358Z,34.20
2019-04-27T04:51:13.824Z,34.30
2019-04-27T04:53:48.815Z,34.50
2019-04-27T04:56:20.482Z,34.60
2019-04-27T04:58:52.531Z,34.90
2019-04-27T05:01:24.771Z,35.10
2019-04-27T05:03:59.008Z,35.30
2019-04-27T05:06:31.750Z,35.60
2019-04-27T05:09:04.439Z,35.80
2019-04-27T05:11:36.923Z,36.00
2019-04-27T05:14:09.902Z,36.20
2019-04-27T05:16:43.774Z,36.40
2019-04-27T05:19:15.731Z,36.60
2019-04-27T05:21:49.275Z,36.70
2019-04-27T05:24:21.481Z,36.90
2019-04-27T05:26:53.570Z,37.00
2019-04-27T05:29:25.257Z,37.10
2019-04-27T05:32:00.759Z,37.10
2019-04-27T05:34:32.639Z,37.00
2019-04-27T05:37:06.185Z,37.00
2019-04-27T05:39:39.051Z,37.00
2019-04-27T05:42:16.936Z,37.00
2019-04-27T05:45:06.283Z,37.00
2019-04-27T05:47:43.357Z,37.00
2019-04-27T05:50:18.348Z,37.00
2019-04-27T05:52:49.687Z,37.00
2019-04-27T05:55:22.073Z,37.10
2019-04-27T05:57:53.873Z,37.20
2019-04-27T06:00:29.358Z,37.20
2019-04-27T06:03:01.876Z,37.20
2019-04-27T06:05:33.918Z,37.20
2019-04-27T06:08:08.621Z,37.30
2019-04-27T06:10:40.966Z,37.40
2019-04-27T06:13:12.860Z,37.50
2019-04-27T06:15:44.901Z,37.60
2019-04-27T06:18:20.672Z,37.70
2019-04-27T06:20:55.679Z,37.70
2019-04-27T06:23:26.703Z,37.70
2019-04-27T06:26:01.577Z,37.80
2019-04-27T06:28:34.018Z,37.80
2019-04-27T06:31:06.191Z,37.90
2019-04-27T06:33:39.241Z,38.00
2019-04-27T06:36:11.661Z,38.00
2019-04-27T06:38:44.342Z,38.00
2019-04-27T06:41:16.494Z,38.10
2019-04-27T06:43:49.744Z,38.10
2019-04-27T06:46:40.967Z,38.20
2019-04-27T06:49:13.075Z,38.30
2019-04-27T06:51:45.048Z,38.20
2019-04-27T06:54:21.045Z,38.20
2019-04-27T06:56:51.636Z,38.10
2019-04-27T06:59:24.105Z,38.00
2019-04-27T07:01:56.207Z,38.00
2019-04-27T07:04:29.423Z,38.00
2019-04-27T07:07:02.966Z,38.00
2019-04-27T07:09:42.130Z,38.00
2019-04-27T07:12:20.035Z,38.10
2019-04-27T07:14:54.574Z,38.20
2019-04-27T07:20:12.703Z,38.40
2019-04-27T07:22:45.067Z,38.50
2019-04-27T07:25:18.895Z,38.60
2019-04-27T07:27:51.868Z,38.60
2019-04-27T07:30:24.087Z,38.50
2019-04-27T07:32:56.196Z,38.40
2019-04-27T07:35:29.608Z,38.40
2019-04-27T07:38:05.149Z,38.50
2019-04-27T07:40:41.618Z,38.60
2019-04-27T07:43:13.801Z,38.60
2019-04-27T07:45:46.285Z,38.60
2019-04-27T07:48:18.906Z,38.70
2019-04-27T07:50:51.525Z,38.90
2019-04-27T07:53:23.699Z,39.00
2019-04-27T07:55:56.655Z,39.00
2019-04-27T07:58:29.589Z,39.10
2019-04-27T08:01:01.964Z,39.10
2019-04-27T08:03:34.335Z,39.10
2019-04-27T08:06:06.418Z,39.00
2019-04-27T08:08:59.345Z,38.90
2019-04-27T08:11:31.608Z,38.80
2019-04-27T08:14:03.912Z,38.70
2019-04-27T08:16:35.977Z,38.70
2019-04-27T08:19:09.839Z,38.60
2019-04-27T08:21:44.401Z,38.60
2019-04-27T08:24:16.305Z,38.60
2019-04-27T08:26:50.151Z,38.40
2019-04-27T08:29:23.482Z,38.30
2019-04-27T08:31:58.522Z,38.30
2019-04-27T08:34:32.001Z,38.30
2019-04-27T08:37:06.208Z,38.40
2019-04-27T08:39:39.657Z,38.50
2019-04-27T08:42:14.140Z,38.60
2019-04-27T08:44:46.448Z,38.70
2019-04-27T08:47:19.521Z,38.80
2019-04-27T08:49:51.625Z,38.70
2019-04-27T08:52:24.665Z,38.60
2019-04-27T08:54:56.883Z,38.50
2019-04-27T08:57:29.129Z,38.30
2019-04-27T09:00:09.278Z,38.20
2019-04-27T09:02:46.801Z,38.00
2019-04-27T09:05:15.357Z,37.90
2019-04-27T09:07:49.677Z,37.70
2019-04-27T09:10:24.424Z,37.70
2019-04-27T09:12:58.959Z,37.60
2019-04-27T09:15:32.886Z,37.60
2019-04-27T09:18:05.211Z,37.50
2019-04-27T09:20:41.168Z,37.40
2019-04-27T09:23:14.198Z,37.30
2019-04-27T09:25:46.450Z,37.30
2019-04-27T09:28:20.281Z,37.30
2019-04-27T09:30:54.120Z,37.20
2019-04-27T09:33:26.463Z,37.20
2019-04-27T09:36:01.491Z,37.20
2019-04-27T09:38:35.773Z,37.10
2019-04-27T09:41:07.667Z,37.10
2019-04-27T09:43:39.601Z,37.20
2019-04-27T09:46:12.459Z,37.20
2019-04-27T09:48:46.624Z,37.30
2019-04-27T09:51:19.390Z,37.40
2019-04-27T09:54:12.093Z,37.50
2019-04-27T09:56:46.722Z,37.50
2019-04-27T09:59:19.232Z,37.50
2019-04-27T10:01:51.175Z,37.50
2019-04-27T10:04:26.301Z,37.50
2019-04-27T10:06:58.681Z,37.60
2019-04-27T10:09:34.602Z,37.60
2019-04-27T10:12:08.460Z,37.60
2019-04-27T10:14:47.684Z,37.60
2019-04-27T10:17:20.184Z,37.70
2019-04-27T10:19:52.099Z,37.70
2019-04-27T10:22:43.813Z,37.60
2019-04-27T10:25:17.994Z,37.60
2019-04-27T10:27:52.072Z,37.60
2019-04-27T10:30:25.781Z,37.60
2019-04-27T10:32:58.295Z,37.50
2019-04-27T10:35:30.263Z,37.50
2019-04-27T10:38:02.651Z,37.40
2019-04-27T10:40:35.384Z,37.40
2019-04-27T10:43:07.723Z,37.30
2019-04-27T10:45:40.609Z,37.30
2019-04-27T10:48:12.929Z,37.20
2019-04-27T10:50:46.698Z,37.10
2019-04-27T10:53:19.151Z,37.10
2019-04-27T10:55:51.298Z,37.00
2019-04-27T10:58:23.515Z,37.00
2019-04-27T11:00:58.467Z,36.90
2019-04-27T11:03:32.412Z,36.80
2019-04-27T11:06:06.762Z,36.70
2019-04-27T11:08:38.969Z,36.60
2019-04-27T11:11:10.907Z,36.60
2019-04-27T11:13:43.171Z,36.40
2019-04-27T11:16:15.338Z,36.40
2019-04-27T11:18:47.473Z,36.30
2019-04-27T11:21:20.253Z,36.20
2019-04-27T11:23:52.637Z,36.20
2019-04-27T11:26:38.128Z,36.10
2019-04-27T11:29:10.464Z,35.90
2019-04-27T11:31:42.546Z,35.90
2019-04-27T11:34:15.342Z,35.80
2019-04-27T11:36:48.738Z,35.80
2019-04-27T11:39:21.726Z,35.70
2019-04-27T11:41:53.685Z,35.70
2019-04-27T11:44:26.496Z,35.70
2019-04-27T11:46:59.224Z,35.60
2019-04-27T11:49:31.561Z,35.40
2019-04-27T11:52:03.473Z,35.30
2019-04-27T11:54:36.238Z,35.10
2019-04-27T11:57:08.654Z,34.90
2019-04-27T11:59:40.310Z,34.70
2019-04-27T12:02:12.890Z,34.60
2019-04-27T12:04:46.666Z,34.40
2019-04-27T12:07:18.943Z,34.30
2019-04-27T12:09:51.750Z,34.20
2019-04-27T12:12:26.211Z,34.10
2019-04-27T12:14:58.401Z,34.00
2019-04-27T12:17:30.943Z,33.90
2019-04-27T12:20:02.874Z,33.80
2019-04-27T12:22:34.778Z,33.70
2019-04-27T12:25:08.593Z,33.60
2019-04-27T12:27:45.819Z,33.50
2019-04-27T12:30:19.943Z,33.40
2019-04-27T12:32:52.001Z,33.30
2019-04-27T12:35:43.178Z,33.20
2019-04-27T12:38:15.202Z,33.10
2019-04-27T12:40:47.588Z,33.00
2019-04-27T12:43:20.703Z,32.90
2019-04-27T12:45:52.749Z,32.80
2019-04-27T12:48:24.692Z,32.80
2019-04-27T12:50:57.223Z,32.80
2019-04-27T12:53:30.777Z,32.70
2019-04-27T12:56:06.546Z,32.70
2019-04-27T12:58:39.773Z,32.60
2019-04-27T13:01:15.450Z,32.50
2019-04-27T13:03:47.889Z,32.50
2019-04-27T13:06:20.682Z,32.50
2019-04-27T13:08:52.660Z,32.40
2019-04-27T13:11:26.535Z,32.40
2019-04-27T13:13:59.298Z,32.40
2019-04-27T13:16:32.535Z,32.40
2019-04-27T13:19:23.870Z,32.30
2019-04-27T13:21:56.882Z,32.30
2019-04-27T13:24:29.051Z,32.30
2019-04-27T13:27:01.452Z,32.30
2019-04-27T13:29:35.755Z,32.30
2019-04-27T13:32:07.915Z,32.30
2019-04-27T13:34:40.423Z,32.30
2019-04-27T13:37:13.713Z,32.20
2019-04-27T13:39:46.343Z,32.20
2019-04-27T13:42:18.547Z,32.20
2019-04-27T13:44:51.963Z,32.20
2019-04-27T13:47:25.139Z,32.20
2019-04-27T13:49:59.367Z,32.20
2019-04-27T13:52:31.601Z,32.20
2019-04-27T13:55:05.711Z,32.20
2019-04-27T13:57:49.770Z,32.20
2019-04-27T14:00:13.198Z,32.20
2019-04-27T14:02:45.301Z,32.20
2019-04-27T14:05:17.794Z,32.20
2019-04-27T14:08:00.276Z,32.20
2019-04-27T14:10:32.373Z,32.20
2019-04-27T14:13:04.383Z,32.20
2019-04-27T14:15:38.866Z,32.20
2019-04-27T14:18:10.841Z,32.20
2019-04-27T14:20:45.333Z,32.10
2019-04-27T14:23:18.890Z,32.10
2019-04-27T14:25:51.628Z,32.10
2019-04-27T14:28:23.844Z,32.10
2019-04-27T14:31:08.961Z,32.10
2019-04-27T14:33:43.957Z,32.00
2019-04-27T14:36:18.255Z,32.00
2019-04-27T14:39:11.078Z,32.00
2019-04-27T14:41:50.527Z,32.00
2019-04-27T14:44:23.385Z,32.00
2019-04-27T14:46:56.050Z,32.00
2019-04-27T14:49:29.028Z,32.10
2019-04-27T14:52:01.482Z,32.00
2019-04-27T14:54:47.273Z,32.00
2019-04-27T14:57:10.309Z,32.10
2019-04-27T14:59:42.463Z,32.00
2019-04-27T15:02:14.853Z,32.00
2019-04-27T15:04:47.271Z,32.00
2019-04-27T15:07:19.809Z,32.00
2019-04-27T15:09:54.436Z,32.00
2019-04-27T15:12:30.788Z,32.00
2019-04-27T15:15:22.633Z,32.00
2019-04-27T15:18:04.324Z,31.90
2019-04-27T15:20:51.738Z,31.90
2019-04-27T15:23:26.664Z,31.90
2019-04-27T15:26:00.398Z,31.80
2019-04-27T15:28:34.122Z,31.80
2019-04-27T15:31:07.055Z,31.80
2019-04-27T15:33:40.207Z,31.70
2019-04-27T15:36:18.439Z,31.70
2019-04-27T15:38:51.365Z,31.70
2019-04-27T15:41:28.778Z,31.60
2019-04-27T15:44:05.626Z,31.50
2019-04-27T15:46:34.797Z,31.50
2019-04-27T15:49:09.797Z,31.50
2019-04-27T15:51:43.939Z,31.50
2019-04-27T15:54:15.758Z,31.40
2019-04-27T15:56:47.764Z,31.30
2019-04-27T15:59:21.800Z,31.20
2019-04-27T16:02:15.611Z,31.20
2019-04-27T16:04:49.933Z,31.20
2019-04-27T16:07:25.308Z,31.10
2019-04-27T16:09:59.201Z,31.10
2019-04-27T16:12:30.081Z,31.10
2019-04-27T16:15:05.068Z,31.10
2019-04-27T16:17:36.075Z,31.10
2019-04-27T16:20:09.943Z,31.10
2019-04-27T16:22:42.080Z,31.10
2019-04-27T16:25:14.404Z,31.00
2019-04-27T16:27:48.976Z,31.00
2019-04-27T16:30:21.465Z,31.00
2019-04-27T16:32:54.094Z,31.00
2019-04-27T16:35:28.176Z,31.00
2019-04-27T16:38:02.272Z,30.90
2019-04-27T16:40:34.458Z,30.90
2019-04-27T16:43:08.845Z,30.90
2019-04-27T16:45:41.465Z,30.80
2019-04-27T16:48:13.722Z,30.80
2019-04-27T16:50:45.793Z,30.80
2019-04-27T16:53:18.674Z,30.80
2019-04-27T16:56:00.956Z,30.70
2019-04-27T16:58:25.474Z,30.70
2019-04-27T17:01:00.179Z,30.70
2019-04-27T17:03:35.757Z,30.70
2019-04-27T17:06:07.931Z,30.80
2019-04-27T17:08:41.936Z,30.80
2019-04-27T17:11:14.093Z,30.80
2019-04-27T17:13:49.680Z,30.80
2019-04-27T17:16:24.658Z,30.80
2019-04-27T17:19:04.672Z,30.80
2019-04-27T17:21:33.355Z,30.80
2019-04-27T17:24:06.194Z,30.80
2019-04-27T17:26:40.221Z,30.90
2019-04-27T17:29:16.508Z,30.90
2019-04-27T17:31:50.482Z,30.90
2019-04-27T17:34:25.223Z,30.90
2019-04-27T17:36:59.129Z,30.90
2019-04-27T17:39:31.653Z,30.90
2019-04-27T17:42:03.722Z,30.90
2019-04-27T17:44:36.161Z,30.90
2019-04-27T17:47:08.846Z,30.90
2019-04-27T17:49:42.381Z,30.80
2019-04-27T17:52:17.281Z,30.90
2019-04-27T17:54:48.544Z,30.80
2019-04-27T17:57:22.352Z,30.90
2019-04-27T17:59:59.065Z,30.90
2019-04-27T18:02:29.362Z,30.90
2019-04-27T18:05:02.328Z,30.90
2019-04-27T18:07:34.989Z,30.80
2019-04-27T18:10:13.400Z,30.90
2019-04-27T18:12:44.418Z,30.90
2019-04-27T18:15:17.289Z,30.80
2019-04-27T18:17:52.212Z,30.80
2019-04-27T18:20:26.199Z,30.80
2019-04-27T18:22:59.994Z,30.70
2019-04-27T18:25:35.647Z,30.70
2019-04-27T18:28:14.853Z,30.70
2019-04-27T18:30:45.211Z,30.70
2019-04-27T18:33:18.473Z,30.70
2019-04-27T18:35:51.221Z,30.60
2019-04-27T18:38:23.673Z,30.60
2019-04-27T18:40:55.667Z,30.60
2019-04-27T18:43:28.626Z,30.60
2019-04-27T18:46:01.231Z,30.60
2019-04-27T18:48:34.540Z,30.60
2019-04-27T18:51:08.173Z,30.50
2019-04-27T18:53:50.016Z,30.60
2019-04-27T18:56:22.423Z,30.60
2019-04-27T18:58:54.509Z,30.50
2019-04-27T19:01:28.840Z,30.60
2019-04-27T19:04:00.338Z,30.50
2019-04-27T19:06:32.833Z,30.50
2019-04-27T19:09:05.496Z,30.50
2019-04-27T19:11:38.412Z,30.50
2019-04-27T19:14:10.451Z,30.50
2019-04-27T19:16:42.659Z,30.50
2019-04-27T19:19:14.607Z,30.40
2019-04-27T19:21:48.591Z,30.40
2019-04-27T19:24:20.643Z,30.40
2019-04-27T19:26:54.128Z,30.40
2019-04-27T19:29:29.202Z,30.40
2019-04-27T19:32:02.646Z,30.40
2019-04-27T19:34:35.067Z,30.30
2019-04-27T19:37:08.327Z,30.30
2019-04-27T19:39:41.686Z,30.30
2019-04-27T19:42:14.690Z,30.30
2019-04-27T19:44:48.128Z,30.30
2019-04-27T19:47:20.250Z,30.30
2019-04-27T19:50:00.586Z,30.30
2019-04-27T19:52:32.806Z,30.30
2019-04-27T19:55:05.856Z,30.30
2019-04-27T19:57:41.662Z,30.30
2019-04-27T20:00:14.049Z,30.30
2019-04-27T20:02:47.901Z,30.30
2019-04-27T20:05:20.741Z,30.30
2019-04-27T20:07:53.175Z,30.30
2019-04-27T20:10:26.102Z,30.30
2019-04-27T20:12:58.223Z,30.30
2019-04-27T20:15:30.449Z,30.30
2019-04-27T20:18:02.635Z,30.30
2019-04-27T20:20:34.962Z,30.30
2019-04-27T20:23:07.569Z,30.30
2019-04-27T20:25:41.239Z,30.30
2019-04-27T20:28:13.857Z,30.30
2019-04-27T20:30:46.064Z,30.30
2019-04-27T20:33:18.321Z,30.20
2019-04-27T20:35:51.068Z,30.20
2019-04-27T20:38:25.058Z,30.20
2019-04-27T20:40:57.667Z,30.20
2019-04-27T20:43:31.808Z,30.20
2019-04-27T20:46:04.161Z,30.20
2019-04-27T20:48:36.988Z,30.10
2019-04-27T20:51:09.152Z,30.10
2019-04-27T20:53:43.155Z,30.10
2019-04-27T20:56:15.156Z,30.10
2019-04-27T20:58:47.439Z,30.10
2019-04-27T21:01:19.470Z,30.10
2019-04-27T21:03:52.978Z,30.10
2019-04-27T21:06:26.719Z,30.10
2019-04-27T21:09:00.843Z,30.10
2019-04-27T21:11:34.735Z,30.10
2019-04-27T21:14:07.329Z,30.10
2019-04-27T21:16:41.216Z,30.10
2019-04-27T21:19:13.185Z,30.00
2019-04-27T21:21:45.430Z,30.00
2019-04-27T21:24:17.566Z,30.00
2019-04-27T21:26:51.218Z,30.00
2019-04-27T21:29:26.377Z,30.00
2019-04-27T21:31:58.528Z,30.00
2019-04-27T21:34:31.217Z,30.00
2019-04-27T21:37:03.173Z,29.90
2019-04-27T21:39:38.440Z,29.90
2019-04-27T21:42:11.114Z,29.90
2019-04-27T21:44:43.476Z,29.90
2019-04-27T21:47:15.576Z,29.90
2019-04-27T21:49:47.838Z,29.90
2019-04-27T21:52:21.547Z,29.90
2019-04-27T21:54:54.911Z,29.80
2019-04-27T21:57:31.224Z,29.80
2019-04-27T22:00:12.462Z,29.80
2019-04-27T22:02:44.973Z,29.80
2019-04-27T22:05:17.353Z,29.80
2019-04-27T22:07:50.125Z,29.80
2019-04-27T22:10:22.209Z,29.80
2019-04-27T22:12:54.560Z,29.80
2019-04-27T22:15:27.041Z,29.80
2019-04-27T22:18:00.700Z,29.80
2019-04-27T22:20:34.778Z,29.70
2019-04-27T22:23:08.771Z,29.70
2019-04-27T22:25:42.221Z,29.60
2019-04-27T22:28:14.537Z,29.60
2019-04-27T22:30:46.622Z,29.60
2019-04-27T22:33:18.953Z,29.50
2019-04-27T22:35:51.787Z,29.50
2019-04-27T22:38:23.923Z,29.50
2019-04-27T22:40:59.075Z,29.50
2019-04-27T22:43:33.983Z,29.50
2019-04-27T22:46:08.462Z,29.50
2019-04-27T22:48:41.569Z,29.40
2019-04-27T22:51:14.021Z,29.40
2019-04-27T22:53:46.357Z,29.40
2019-04-27T22:56:22.243Z,29.40
2019-04-27T22:59:00.420Z,29.40
2019-04-27T23:01:30.816Z,29.40
2019-04-27T23:04:04.364Z,29.30
2019-04-27T23:06:36.847Z,29.30
2019-04-27T23:09:11.742Z,29.30
2019-04-27T23:11:44.292Z,29.30
2019-04-27T23:14:16.310Z,29.30
2019-04-27T23:16:50.850Z,29.30
2019-04-27T23:19:23.410Z,29.30
2019-04-27T23:21:55.501Z,29.30
2019-04-27T23:24:27.600Z,29.30
2019-04-27T23:27:03.396Z,29.30
2019-04-27T23:29:49.193Z,29.20
2019-04-27T23:32:23.793Z,29.20
2019-04-27T23:34:56.316Z,29.20
2019-04-27T23:37:28.904Z,29.20
2019-04-27T23:40:02.955Z,29.20
2019-04-27T23:42:35.794Z,29.20
2019-04-27T23:45:10.615Z,29.20
2019-04-27T23:48:02.251Z,29.20
2019-04-27T23:50:39.125Z,29.30
2019-04-27T23:53:13.235Z,29.30
2019-04-27T23:55:45.300Z,29.30
2019-04-27T23:58:17.443Z,29.40
